Time;durP1;ratioP1;P1;durP2;ratioP2;P2;SDS_P1;SDS_P2;PMS_P1;PMS_P2;Temp;Humidity;BMP_temperature;BMP_pressure;BME280_temperature;BME280_humidity;BME280_pressure;Samples;Min_cycle;Max_cycle;Signal;HPM_P1;HPM_P2
2023/03/30 00:00:17;;;;;;;11.40;8.70;;;11.40;99.90;;;;;;5015077;28;20498;-34
2023/03/30 00:02:45;;;;;;;12.80;8.20;;;11.50;99.90;;;;;;5012575;28;20108;-34
2023/03/30 00:05:10;;;;;;;10.63;7.93;;;11.30;99.90;;;;;;5012891;28;20038;-34
2023/03/30 00:07:37;;;;;;;10.55;8.20;;;11.50;99.90;;;;;;5013965;28;20564;-34
2023/03/30 00:10:03;;;;;;;9.82;8.82;;;11.80;99.90;;;;;;5012674;28;20042;-34
2023/03/30 00:12:29;;;;;;;12.63;7.97;;;11.50;99.90;;;;;;5022917;28;20045;-34
2023/03/30 00:14:55;;;;;;;9.45;8.32;;;11.70;99.90;;;;;;5017498;28;20034;-32
2023/03/30 00:17:21;;;;;;;12.10;8.15;;;11.70;99.90;;;;;;5013237;28;20045;-34
2023/03/30 00:19:47;;;;;;;11.05;8.70;;;11.60;99.90;;;;;;5012928;28;20072;-33
2023/03/30 00:22:13;;;;;;;10.73;8.20;;;11.70;99.90;;;;;;5021167;28;20122;-33
2023/03/30 00:24:38;;;;;;;9.23;7.80;;;11.60;99.90;;;;;;5018981;28;20120;-34
2023/03/30 00:27:04;;;;;;;8.60;7.63;;;11.60;99.90;;;;;;5012294;28;20041;-33
2023/03/30 00:29:30;;;;;;;9.45;7.28;;;11.60;99.90;;;;;;5017956;28;20415;-34
2023/03/30 00:31:58;;;;;;;9.90;8.00;;;11.90;99.90;;;;;;5022645;28;20034;-34
2023/03/30 00:34:24;;;;;;;9.27;7.65;;;11.70;99.90;;;;;;5025650;28;20287;-34
2023/03/30 00:36:52;;;;;;;9.55;7.07;;;11.80;99.90;;;;;;5018123;28;20080;-33
2023/03/30 00:39:21;;;;;;;8.10;7.10;;;11.70;99.90;;;;;;5021143;28;20052;-33
2023/03/30 00:41:48;;;;;;;9.82;7.30;;;11.60;99.90;;;;;;5011939;28;20033;-33
2023/03/30 00:44:51;;;;;;;12.68;7.38;;;11.70;99.90;;;;;;5011838;28;20045;-33
2023/03/30 00:47:17;;;;;;;7.63;6.82;;;11.60;99.90;;;;;;5010174;28;20038;-34
2023/03/30 00:49:44;;;;;;;10.93;6.82;;;11.70;99.90;;;;;;5015790;28;20030;-34
2023/03/30 00:52:11;;;;;;;9.38;7.07;;;11.70;99.90;;;;;;5011719;28;20056;-36
2023/03/30 00:54:38;;;;;;;7.93;6.55;;;11.70;99.90;;;;;;5039543;28;20041;-33
2023/03/30 00:57:06;;;;;;;10.75;6.70;;;11.80;99.90;;;;;;5018287;28;20376;-34
2023/03/30 00:59:32;;;;;;;8.55;6.75;;;11.80;99.90;;;;;;5016169;28;20044;-33
2023/03/30 01:01:59;;;;;;;9.43;7.10;;;11.70;99.90;;;;;;5016239;28;20379;-33
2023/03/30 01:04:24;;;;;;;11.45;6.78;;;11.60;99.90;;;;;;5011181;28;20038;-34
2023/03/30 01:06:54;;;;;;;9.25;6.47;;;11.70;99.90;;;;;;5010807;28;20054;-34
2023/03/30 01:09:21;;;;;;;8.70;6.28;;;11.70;99.90;;;;;;5012216;28;20113;-34
2023/03/30 01:11:47;;;;;;;10.65;6.60;;;11.70;99.90;;;;;;5018764;28;20038;-34
2023/03/30 01:14:15;;;;;;;9.20;6.50;;;11.60;99.90;;;;;;5016677;28;20076;-34
2023/03/30 01:17:00;;;;;;;9.05;6.38;;;11.60;99.90;;;;;;5010810;28;20042;-36
2023/03/30 01:19:54;;;;;;;9.90;6.40;;;11.80;99.90;;;;;;5004273;28;20042;-34
2023/03/30 01:22:24;;;;;;;9.65;6.00;;;11.70;99.90;;;;;;5002808;28;20045;-34
2023/03/30 01:25:29;;;;;;;7.43;6.13;;;11.80;99.90;;;;;;4984085;28;20053;-34
2023/03/30 01:28:25;;;;;;;10.77;6.72;;;11.80;99.90;;;;;;4999472;28;20058;-35
2023/03/30 01:31:10;;;;;;;9.55;6.22;;;11.80;99.90;;;;;;5015735;28;20033;-35
2023/03/30 01:33:47;;;;;;;9.90;6.85;;;11.70;99.90;;;;;;5014583;28;20037;-34
2023/03/30 01:36:27;;;;;;;7.70;6.60;;;11.80;99.90;;;;;;5009020;28;20125;-35
2023/03/30 01:39:28;;;;;;;9.05;6.57;;;11.80;99.90;;;;;;4995349;28;20037;-35
2023/03/30 01:42:11;;;;;;;7.53;6.30;;;11.70;99.90;;;;;;4976965;28;20041;-35
2023/03/30 01:44:40;;;;;;;9.57;5.90;;;11.80;99.90;;;;;;4996685;28;20030;-34
2023/03/30 01:47:30;;;;;;;9.20;6.25;;;11.70;99.90;;;;;;5009280;28;20124;-34
2023/03/30 01:50:08;;;;;;;8.32;5.93;;;11.70;99.90;;;;;;5012427;28;20060;-34
2023/03/30 01:52:46;;;;;;;11.90;6.22;;;11.70;99.90;;;;;;5016553;28;20539;-34
2023/03/30 01:55:19;;;;;;;7.30;6.03;;;11.80;99.90;;;;;;5014009;28;20042;-34
2023/03/30 01:57:52;;;;;;;10.63;5.90;;;11.80;99.90;;;;;;5018748;28;20037;-34
2023/03/30 02:00:21;;;;;;;7.43;5.90;;;11.30;99.90;;;;;;5010518;28;20506;-34
2023/03/30 02:02:59;;;;;;;7.13;5.85;;;11.80;99.90;;;;;;5010408;28;20483;-34
2023/03/30 02:05:26;;;;;;;9.32;5.90;;;11.70;99.90;;;;;;5017809;28;20080;-33
2023/03/30 02:07:56;;;;;;;8.05;5.80;;;11.80;99.90;;;;;;5010586;28;20530;-34
2023/03/30 02:10:27;;;;;;;7.45;5.95;;;11.70;99.90;;;;;;5011972;28;20402;-34
2023/03/30 02:12:56;;;;;;;7.65;5.32;;;11.80;99.90;;;;;;5015090;28;20070;-34
2023/03/30 02:15:24;;;;;;;8.20;6.10;;;11.80;99.90;;;;;;5021365;28;20053;-34
2023/03/30 02:17:50;;;;;;;7.07;5.57;;;12.00;99.90;;;;;;5022527;28;20425;-34
2023/03/30 02:20:16;;;;;;;7.32;5.38;;;11.80;99.90;;;;;;5017813;28;20046;-34
2023/03/30 02:22:43;;;;;;;5.95;5.25;;;11.90;99.90;;;;;;5017890;28;20510;-34
2023/03/30 02:25:09;;;;;;;7.28;5.00;;;11.90;99.90;;;;;;5010196;28;20034;-34
2023/03/30 02:27:36;;;;;;;6.05;4.88;;;12.00;99.90;;;;;;5021460;28;20052;-34
2023/03/30 02:30:06;;;;;;;5.93;4.47;;;12.40;99.90;;;;;;5015362;28;20478;-34
2023/03/30 02:33:02;;;;;;;11.20;5.75;;;12.10;99.90;;;;;;5019912;28;20099;-34
2023/03/30 02:35:46;;;;;;;8.50;5.30;;;12.10;99.90;;;;;;5014038;28;20406;-34
2023/03/30 02:38:37;;;;;;;7.30;5.53;;;12.30;99.90;;;;;;5014270;28;20042;-33
2023/03/30 02:41:28;;;;;;;6.97;4.90;;;12.10;99.90;;;;;;5001715;28;20054;-34
2023/03/30 02:44:05;;;;;;;7.07;4.82;;;12.20;99.90;;;;;;5009924;28;20526;-33
2023/03/30 02:47:19;;;;;;;6.30;4.70;;;12.10;99.90;;;;;;5013878;28;20038;-36
2023/03/30 02:50:08;;;;;;;6.93;4.72;;;12.30;99.90;;;;;;5008714;28;20509;-34
2023/03/30 02:52:52;;;;;;;9.57;5.53;;;12.30;99.90;;;;;;5013594;28;20052;-34
2023/03/30 02:55:21;;;;;;;8.57;5.20;;;12.10;99.90;;;;;;5013802;28;20049;-34
2023/03/30 02:58:00;;;;;;;6.10;4.63;;;12.00;99.90;;;;;;5014506;28;20128;-34
2023/03/30 03:00:45;;;;;;;7.82;5.32;;;11.90;99.90;;;;;;5013715;28;20136;-35
2023/03/30 03:03:23;;;;;;;5.72;4.97;;;11.80;99.90;;;;;;5018962;28;20125;-34
2023/03/30 03:05:52;;;;;;;7.38;4.85;;;11.90;99.90;;;;;;5018840;28;20040;-34
2023/03/30 03:08:22;;;;;;;7.20;5.13;;;11.80;99.90;;;;;;5016881;28;20394;-33
2023/03/30 03:10:50;;;;;;;8.05;5.25;;;11.90;99.90;;;;;;5015749;28;20073;-33
2023/03/30 03:13:17;;;;;;;14.30;4.80;;;11.80;99.90;;;;;;5013269;28;20037;-33
2023/03/30 03:15:45;;;;;;;7.10;4.75;;;11.70;99.90;;;;;;5008936;28;20077;-33
2023/03/30 03:18:12;;;;;;;9.38;5.55;;;11.70;99.90;;;;;;5015165;28;20038;-34
2023/03/30 03:20:38;;;;;;;7.22;5.13;;;11.60;99.90;;;;;;5016791;28;20049;-33
2023/03/30 03:23:04;;;;;;;6.80;5.22;;;11.70;99.90;;;;;;5034437;28;20379;-33
2023/03/30 03:25:30;;;;;;;8.05;5.70;;;11.70;99.90;;;;;;5016987;28;20037;-33
2023/03/30 03:27:56;;;;;;;8.82;4.75;;;11.60;99.90;;;;;;5022605;28;20038;-33
2023/03/30 03:30:22;;;;;;;6.78;4.85;;;11.70;99.90;;;;;;5019645;28;20364;-34
2023/03/30 03:32:50;;;;;;;6.82;4.93;;;11.60;99.90;;;;;;5016277;28;20514;-34
2023/03/30 03:35:16;;;;;;;6.95;4.70;;;11.50;99.90;;;;;;5021380;28;20044;-33
2023/03/30 03:37:41;;;;;;;7.75;4.45;;;11.50;99.90;;;;;;5007161;28;20419;-33
2023/03/30 03:40:11;;;;;;;7.35;4.28;;;11.80;99.90;;;;;;5014607;28;20050;-34
2023/03/30 03:42:37;;;;;;;5.07;3.90;;;11.80;99.90;;;;;;5021755;28;20923;-34
2023/03/30 03:45:03;;;;;;;7.18;4.35;;;12.10;99.90;;;;;;5017919;28;20049;-36
2023/03/30 03:47:31;;;;;;;5.47;3.55;;;12.10;99.90;;;;;;5021152;28;20046;-36
2023/03/30 03:49:56;;;;;;;4.10;3.67;;;12.00;99.90;;;;;;5022784;28;20041;-35
2023/03/30 03:52:22;;;;;;;6.28;4.00;;;12.20;99.90;;;;;;5022667;28;20037;-36
2023/03/30 03:54:48;;;;;;;4.85;3.30;;;12.20;99.90;;;;;;5011736;28;20042;-35
2023/03/30 03:57:14;;;;;;;4.88;3.60;;;12.50;99.90;;;;;;5012714;28;20124;-36
2023/03/30 03:59:40;;;;;;;6.32;3.20;;;12.30;99.90;;;;;;5011914;28;20097;-36
2023/03/30 04:02:06;;;;;;;9.25;3.65;;;12.50;99.90;;;;;;5012839;28;20046;-36
2023/03/30 04:04:32;;;;;;;5.03;3.78;;;12.40;99.90;;;;;;5014180;28;20096;-36
2023/03/30 04:06:57;;;;;;;4.70;3.67;;;12.30;99.90;;;;;;4999097;28;20438;-36
2023/03/30 04:09:23;;;;;;;5.18;3.42;;;12.40;99.90;;;;;;5013926;28;20461;-36
2023/03/30 04:11:49;;;;;;;8.43;3.80;;;12.40;99.90;;;;;;4996877;28;20050;-37
2023/03/30 04:14:15;;;;;;;5.32;4.00;;;12.40;99.90;;;;;;5014952;28;20045;-35
2023/03/30 04:16:41;;;;;;;4.88;3.60;;;12.50;99.90;;;;;;5015111;28;20436;-36
2023/03/30 04:19:07;;;;;;;6.35;3.78;;;12.40;99.90;;;;;;5018790;28;20033;-35
2023/03/30 04:21:34;;;;;;;7.07;3.63;;;12.50;99.90;;;;;;5015827;28;20514;-36
2023/03/30 04:24:00;;;;;;;6.18;4.93;;;12.60;99.90;;;;;;5014481;28;20053;-36
2023/03/30 04:26:27;;;;;;;7.47;4.55;;;12.60;99.90;;;;;;5015279;28;20038;-36
2023/03/30 04:28:56;;;;;;;7.70;4.10;;;12.40;99.90;;;;;;5016392;28;20037;-36
2023/03/30 04:31:25;;;;;;;6.22;4.28;;;12.50;99.90;;;;;;5017692;28;20045;-35
2023/03/30 04:33:52;;;;;;;6.25;4.13;;;12.60;99.90;;;;;;5013724;28;20122;-36
2023/03/30 04:36:19;;;;;;;6.57;4.00;;;12.50;99.90;;;;;;5017581;28;21296;-36
2023/03/30 04:38:57;;;;;;;7.50;4.30;;;12.50;99.90;;;;;;5018886;28;20076;-36
2023/03/30 04:41:28;;;;;;;8.45;4.20;;;12.40;99.90;;;;;;5017948;28;20496;-35
2023/03/30 04:43:54;;;;;;;6.78;4.20;;;12.30;99.90;;;;;;5020980;28;20093;-35
2023/03/30 04:46:20;;;;;;;7.35;4.15;;;12.40;99.90;;;;;;5024478;28;20065;-35
2023/03/30 04:48:46;;;;;;;8.38;4.43;;;12.30;99.90;;;;;;5024582;28;20150;-35
2023/03/30 04:51:11;;;;;;;7.20;4.32;;;12.20;99.90;;;;;;5017640;28;20048;-35
2023/03/30 04:53:37;;;;;;;6.40;4.30;;;12.20;99.90;;;;;;5010320;28;20045;-35
2023/03/30 04:56:03;;;;;;;5.30;4.38;;;12.20;99.90;;;;;;5011808;28;20042;-35
2023/03/30 04:58:29;;;;;;;4.72;3.63;;;12.40;99.90;;;;;;5012216;28;20057;-35
2023/03/30 05:00:55;;;;;;;5.93;3.33;;;12.40;99.90;;;;;;5011055;28;20060;-35
2023/03/30 05:03:20;;;;;;;8.73;3.95;;;12.30;99.90;;;;;;5010913;28;20053;-35
2023/03/30 05:05:46;;;;;;;6.90;3.67;;;12.20;99.90;;;;;;5009069;28;20068;-35
2023/03/30 05:08:12;;;;;;;5.55;3.17;;;12.40;99.90;;;;;;5011391;28;20466;-35
2023/03/30 05:10:38;;;;;;;5.43;4.10;;;12.40;99.90;;;;;;5015933;28;20063;-35
2023/03/30 05:13:04;;;;;;;6.03;3.35;;;12.40;99.90;;;;;;5015993;28;20479;-36
2023/03/30 05:15:29;;;;;;;6.20;4.07;;;12.50;99.90;;;;;;5013491;28;20109;-35
2023/03/30 05:17:55;;;;;;;6.85;4.90;;;12.50;99.90;;;;;;4996694;28;20510;-35
2023/03/30 05:20:21;;;;;;;8.38;5.28;;;12.40;99.90;;;;;;4995907;28;20132;-36
2023/03/30 05:22:49;;;;;;;5.70;3.33;;;12.40;99.90;;;;;;5013519;28;20080;-35
2023/03/30 05:25:15;;;;;;;10.23;3.90;;;12.40;99.90;;;;;;5010809;28;20475;-36
2023/03/30 05:27:41;;;;;;;5.18;3.85;;;12.50;99.90;;;;;;5015706;28;20092;-36
2023/03/30 05:30:07;;;;;;;7.15;3.50;;;12.40;99.90;;;;;;5010117;28;20045;-35
2023/03/30 05:32:33;;;;;;;6.00;3.45;;;12.30;99.90;;;;;;5012351;28;20037;-36
2023/03/30 05:34:58;;;;;;;5.07;2.85;;;12.50;99.90;;;;;;5013812;28;20205;-36
2023/03/30 05:37:24;;;;;;;6.68;3.55;;;12.40;99.90;;;;;;5016644;28;20091;-35
2023/03/30 05:39:50;;;;;;;6.57;3.53;;;12.50;99.90;;;;;;5012899;28;20465;-35
2023/03/30 05:42:16;;;;;;;4.93;3.20;;;12.40;99.90;;;;;;5013315;28;20044;-36
2023/03/30 05:44:41;;;;;;;6.82;3.22;;;12.50;99.90;;;;;;5013925;28;20439;-35
2023/03/30 05:47:07;;;;;;;8.23;3.33;;;12.40;99.90;;;;;;5012567;28;20522;-35
2023/03/30 05:49:33;;;;;;;4.68;3.25;;;12.40;99.90;;;;;;5014640;28;20483;-35
2023/03/30 05:51:59;;;;;;;4.60;3.22;;;12.40;99.90;;;;;;5014468;28;20402;-36
2023/03/30 05:54:26;;;;;;;6.78;3.05;;;12.50;99.90;;;;;;4996842;28;20049;-36
2023/03/30 05:56:52;;;;;;;5.05;2.92;;;12.50;99.90;;;;;;5013003;28;20065;-35
2023/03/30 05:59:18;;;;;;;5.15;3.15;;;12.60;99.90;;;;;;5014949;28;20042;-36
2023/03/30 06:01:44;;;;;;;6.45;3.08;;;12.60;99.90;;;;;;5014132;28;20033;-35
2023/03/30 06:04:10;;;;;;;5.72;3.30;;;12.50;99.90;;;;;;5024335;28;20049;-36
2023/03/30 06:06:36;;;;;;;5.43;2.85;;;12.60;99.90;;;;;;5019956;28;20038;-36
2023/03/30 06:09:04;;;;;;;4.53;2.85;;;12.60;99.90;;;;;;5009988;28;20045;-37
2023/03/30 06:11:30;;;;;;;5.80;3.00;;;12.50;99.90;;;;;;5026259;28;20038;-37
2023/03/30 06:13:57;;;;;;;6.47;3.20;;;12.70;99.90;;;;;;5011286;28;20089;-37
2023/03/30 06:16:22;;;;;;;6.45;3.03;;;12.80;99.90;;;;;;5006337;28;20173;-37
2023/03/30 06:18:48;;;;;;;6.95;2.95;;;12.70;99.90;;;;;;5012541;28;20124;-37
2023/03/30 06:21:14;;;;;;;4.20;2.53;;;12.90;99.90;;;;;;5006976;28;20115;-36
2023/03/30 06:23:41;;;;;;;5.15;3.30;;;12.90;99.90;;;;;;5010704;28;20387;-37
2023/03/30 06:26:08;;;;;;;7.35;3.13;;;12.80;99.90;;;;;;5010151;28;20146;-37
2023/03/30 06:28:34;;;;;;;7.30;2.85;;;13.30;99.90;;;;;;5006459;28;20045;-38
2023/03/30 06:31:01;;;;;;;7.43;3.20;;;12.90;99.90;;;;;;5007224;28;20412;-38
2023/03/30 06:33:27;;;;;;;8.52;3.13;;;13.00;99.90;;;;;;5007322;28;20050;-37
2023/03/30 06:35:54;;;;;;;7.72;2.90;;;13.10;99.90;;;;;;5013784;28;20037;-37
2023/03/30 06:38:21;;;;;;;7.55;3.22;;;13.10;99.90;;;;;;5015826;28;20048;-37
2023/03/30 06:40:47;;;;;;;6.15;3.30;;;13.30;99.90;;;;;;5022208;28;20499;-37
2023/03/30 06:43:22;;;;;;;7.32;3.58;;;13.20;99.90;;;;;;5012649;28;20038;-37
2023/03/30 06:45:55;;;;;;;5.35;3.15;;;13.20;99.90;;;;;;5014443;28;20052;-38
2023/03/30 06:48:25;;;;;;;7.40;2.88;;;13.20;99.90;;;;;;4999439;28;20052;-35
2023/03/30 06:50:52;;;;;;;6.72;2.63;;;13.10;99.90;;;;;;5015285;28;20124;-35
2023/03/30 06:53:18;;;;;;;5.95;3.10;;;13.30;99.90;;;;;;5009766;28;20041;-36
2023/03/30 06:55:49;;;;;;;4.32;2.70;;;13.20;99.90;;;;;;4994849;28;20052;-35
2023/03/30 06:58:15;;;;;;;3.85;2.63;;;13.20;99.90;;;;;;5021155;28;20037;-35
2023/03/30 07:00:40;;;;;;;4.97;2.85;;;13.40;99.90;;;;;;5013234;28;20096;-35
2023/03/30 07:03:07;;;;;;;6.03;2.80;;;13.50;99.90;;;;;;5021257;28;20037;-35
2023/03/30 07:05:33;;;;;;;5.82;2.53;;;13.50;99.90;;;;;;5018802;28;20034;-35
2023/03/30 07:07:59;;;;;;;10.23;3.22;;;13.40;99.90;;;;;;5015358;28;20500;-35
2023/03/30 07:10:25;;;;;;;6.72;3.28;;;13.40;99.90;;;;;;5020552;28;20042;-35
2023/03/30 07:12:51;;;;;;;5.03;2.83;;;13.50;99.90;;;;;;5011337;28;20111;-35
2023/03/30 07:15:17;;;;;;;5.85;2.75;;;13.20;99.90;;;;;;5027669;28;20041;-34
2023/03/30 07:17:43;;;;;;;5.82;2.65;;;13.60;99.90;;;;;;5017551;28;20038;-35
2023/03/30 07:20:13;;;;;;;5.57;2.67;;;13.20;99.90;;;;;;5024571;28;20176;-37
2023/03/30 07:22:39;;;;;;;6.85;2.80;;;13.10;99.90;;;;;;5012301;28;20038;-38
2023/03/30 07:25:05;;;;;;;4.90;3.03;;;13.30;99.90;;;;;;5012394;28;20041;-38
2023/03/30 07:27:31;;;;;;;5.88;2.70;;;13.40;99.90;;;;;;5012842;28;20042;-38
2023/03/30 07:29:57;;;;;;;8.45;2.88;;;13.10;99.90;;;;;;5013117;28;20377;-37
2023/03/30 07:32:23;;;;;;;5.15;2.80;;;13.00;99.90;;;;;;5015273;28;20136;-38
2023/03/30 07:34:49;;;;;;;9.63;2.80;;;13.10;99.90;;;;;;5032061;28;20064;-38
2023/03/30 07:37:18;;;;;;;7.18;2.58;;;13.20;99.90;;;;;;5012825;28;20037;-37
2023/03/30 07:39:44;;;;;;;9.55;2.90;;;13.10;99.90;;;;;;5014152;28;20045;-37
2023/03/30 07:42:10;;;;;;;6.78;2.75;;;13.20;99.90;;;;;;5017996;28;20033;-38
2023/03/30 07:44:36;;;;;;;12.65;2.65;;;13.10;99.90;;;;;;5016970;28;20091;-37
2023/03/30 07:47:03;;;;;;;6.78;2.40;;;13.10;99.90;;;;;;4995519;28;20042;-38
2023/03/30 07:49:28;;;;;;;15.18;4.18;;;13.50;99.90;;;;;;5020428;28;20037;-37
2023/03/30 07:51:54;;;;;;;14.38;4.10;;;13.30;99.90;;;;;;5035767;28;20042;-37
2023/03/30 07:54:20;;;;;;;11.15;3.00;;;13.30;99.90;;;;;;5018846;28;20038;-37
2023/03/30 07:56:51;;;;;;;13.95;3.10;;;13.30;99.90;;;;;;5019272;28;20402;-37
2023/03/30 07:59:22;;;;;;;7.90;2.90;;;13.30;99.90;;;;;;4996426;28;20046;-37
2023/03/30 08:01:53;;;;;;;13.18;2.90;;;13.20;99.90;;;;;;5013743;28;20207;-37
2023/03/30 08:04:20;;;;;;;10.95;3.25;;;13.20;99.90;;;;;;5012135;28;20030;-37
2023/03/30 08:06:46;;;;;;;12.50;3.40;;;13.50;99.90;;;;;;5014206;28;20033;-37
2023/03/30 08:09:12;;;;;;;7.78;3.22;;;13.30;99.90;;;;;;5016172;28;20167;-38
2023/03/30 08:11:38;;;;;;;10.25;3.22;;;13.30;99.90;;;;;;5015215;28;20041;-37
2023/03/30 08:14:04;;;;;;;13.77;4.25;;;13.30;99.90;;;;;;5016918;28;20480;-37
2023/03/30 08:16:31;;;;;;;11.40;3.50;;;13.40;99.90;;;;;;5014237;28;20133;-37
2023/03/30 08:18:56;;;;;;;12.30;3.95;;;13.20;99.90;;;;;;5006965;28;20045;-38
2023/03/30 08:21:24;;;;;;;10.65;3.47;;;13.20;99.90;;;;;;5012159;28;20034;-38
2023/03/30 08:23:58;;;;;;;15.40;4.28;;;13.30;99.90;;;;;;5013143;28;20045;-38
2023/03/30 08:26:27;;;;;;;11.43;3.55;;;13.40;99.90;;;;;;5015817;28;20503;-37
2023/03/30 08:28:53;;;;;;;14.80;3.92;;;13.40;99.90;;;;;;5018033;28;20491;-40
2023/03/30 08:31:20;;;;;;;14.35;4.55;;;13.40;99.90;;;;;;5020248;28;20038;-38
2023/03/30 08:33:49;;;;;;;13.73;3.95;;;13.20;99.90;;;;;;5013387;28;20034;-38
2023/03/30 08:36:15;;;;;;;12.65;3.33;;;13.10;99.90;;;;;;5019928;28;20046;-40
2023/03/30 08:38:41;;;;;;;15.43;4.25;;;13.20;99.90;;;;;;5012653;28;20048;-37
2023/03/30 08:41:23;;;;;;;13.30;3.63;;;13.30;99.90;;;;;;5016000;28;20402;-37
2023/03/30 08:43:59;;;;;;;12.60;3.83;;;13.30;99.90;;;;;;5015790;28;20038;-39
2023/03/30 08:46:25;;;;;;;17.73;4.60;;;13.20;99.90;;;;;;5015300;28;20558;-34
2023/03/30 08:48:52;;;;;;;12.82;4.65;;;12.90;99.90;;;;;;5012397;28;20034;-37
2023/03/30 08:51:23;;;;;;;12.88;3.65;;;13.00;99.90;;;;;;5017947;28;20049;-38
2023/03/30 08:54:00;;;;;;;13.23;3.88;;;12.80;99.90;;;;;;5012282;28;20037;-35
2023/03/30 08:56:38;;;;;;;16.20;3.58;;;12.50;99.90;;;;;;5013103;28;20037;-35
2023/03/30 08:59:22;;;;;;;15.88;4.88;;;12.50;99.90;;;;;;5014967;28;20038;-36
2023/03/30 09:01:53;;;;;;;;;;;12.60;99.90;;;;;;5006345;28;20084;-36
2023/03/30 09:05:01;;;;;;;11.82;4.45;;;12.80;99.90;;;;;;5015305;28;20593;-36
2023/03/30 09:07:50;;;;;;;16.42;4.85;;;12.90;99.90;;;;;;5023698;28;20462;-36
2023/03/30 09:10:18;;;;;;;19.25;5.07;;;13.40;99.90;;;;;;4991425;28;20041;-34
2023/03/30 09:12:57;;;;;;;14.02;4.03;;;13.80;99.90;;;;;;5015140;28;20037;-34
2023/03/30 09:16:03;;;;;;;14.07;4.00;;;13.80;99.90;;;;;;5018447;28;20423;-37
2023/03/30 09:18:31;;;;;;;14.70;3.83;;;14.10;99.90;;;;;;5002039;28;20168;-36
2023/03/30 09:21:00;;;;;;;16.67;4.22;;;14.60;99.90;;;;;;5010452;28;20107;-36
2023/03/30 09:23:28;;;;;;;13.65;4.10;;;14.90;99.90;;;;;;5020451;28;20518;-35
2023/03/30 09:26:13;;;;;;;10.10;3.92;;;15.10;99.90;;;;;;5024573;28;20033;-34
2023/03/30 09:29:00;;;;;;;12.27;4.13;;;15.00;99.90;;;;;;5011447;28;20041;-34
2023/03/30 09:31:32;;;;;;;13.10;3.33;;;15.20;99.90;;;;;;5002255;28;20483;-34
2023/03/30 09:34:05;;;;;;;14.38;3.63;;;14.70;99.90;;;;;;5011094;28;20487;-35
2023/03/30 09:36:38;;;;;;;14.57;3.60;;;14.70;99.90;;;;;;5011691;28;20042;-34
2023/03/30 09:39:17;;;;;;;13.07;4.07;;;14.60;99.90;;;;;;5010975;28;20038;-34
2023/03/30 09:42:15;;;;;;;16.48;3.35;;;14.40;99.90;;;;;;5010327;28;20034;-34
2023/03/30 09:44:53;;;;;;;14.50;3.88;;;14.10;99.90;;;;;;5013028;28;20025;-34
2023/03/30 09:47:26;;;;;;;17.40;3.50;;;14.30;99.90;;;;;;5007950;28;20046;-34
2023/03/30 09:50:01;;;;;;;18.10;4.03;;;14.10;99.90;;;;;;5017783;28;20076;-34
2023/03/30 09:52:30;;;;;;;12.05;3.20;;;14.00;99.90;;;;;;5009892;28;20033;-34
2023/03/30 09:55:01;;;;;;;10.80;3.28;;;14.10;99.90;;;;;;5014270;28;20065;-34
2023/03/30 09:57:31;;;;;;;11.20;3.35;;;14.00;99.90;;;;;;5013612;28;20057;-34
2023/03/30 09:59:59;;;;;;;10.30;3.15;;;14.30;99.90;;;;;;5010331;28;20042;-34
2023/03/30 10:02:29;;;;;;;14.80;3.63;;;14.40;99.90;;;;;;5013048;28;20034;-34
2023/03/30 10:04:59;;;;;;;11.32;3.25;;;14.50;99.90;;;;;;5009869;28;20052;-34
2023/03/30 10:07:39;;;;;;;16.38;3.47;;;14.80;99.90;;;;;;5011020;28;20369;-34
2023/03/30 10:10:19;;;;;;;20.10;3.75;;;15.00;99.90;;;;;;5015838;28;20053;-34
2023/03/30 10:12:48;;;;;;;12.05;3.22;;;14.90;99.90;;;;;;5010445;28;20117;-35
2023/03/30 10:15:19;;;;;;;10.88;2.88;;;15.30;99.90;;;;;;5012534;28;20046;-34
2023/03/30 10:17:47;;;;;;;10.50;3.42;;;15.10;99.90;;;;;;5013075;28;20048;-34
2023/03/30 10:20:35;;;;;;;10.43;2.45;;;14.90;99.90;;;;;;5020136;28;20084;-34
2023/03/30 10:23:21;;;;;;;14.90;2.88;;;14.70;99.90;;;;;;5017247;28;20096;-34
2023/03/30 10:25:50;;;;;;;13.07;2.95;;;14.80;99.90;;;;;;5010396;28;20129;-34
2023/03/30 10:28:29;;;;;;;13.13;3.15;;;14.70;99.90;;;;;;5014073;28;20038;-34
2023/03/30 10:31:14;;;;;;;11.82;2.70;;;14.30;99.90;;;;;;5015892;28;20040;-34
2023/03/30 10:33:42;;;;;;;10.57;2.53;;;14.00;99.90;;;;;;5014049;28;20067;-34
2023/03/30 10:36:09;;;;;;;8.77;2.40;;;14.10;99.90;;;;;;5023027;28;20052;-36
2023/03/30 10:38:38;;;;;;;9.43;2.58;;;14.50;99.90;;;;;;5012636;28;20038;-36
2023/03/30 10:41:20;;;;;;;10.27;3.13;;;14.60;99.90;;;;;;5014535;28;20043;-36
2023/03/30 10:43:48;;;;;;;12.98;3.25;;;14.40;99.90;;;;;;5021390;28;20037;-36
2023/03/30 10:46:21;;;;;;;9.48;3.28;;;14.50;99.90;;;;;;5023318;28;20439;-36
2023/03/30 10:49:25;;;;;;;11.95;3.25;;;14.80;99.90;;;;;;5010227;28;20446;-36
2023/03/30 10:52:18;;;;;;;10.13;2.80;;;14.70;99.90;;;;;;5014197;28;20034;-36
2023/03/30 10:54:48;;;;;;;8.60;2.33;;;14.90;99.90;;;;;;5016319;28;20068;-36
2023/03/30 10:57:20;;;;;;;11.13;2.75;;;15.20;99.90;;;;;;5023870;28;20092;-36
2023/03/30 10:59:49;;;;;;;8.65;2.38;;;15.00;99.90;;;;;;5013600;28;20041;-36
2023/03/30 11:02:37;;;;;;;6.78;2.22;;;15.10;99.90;;;;;;5019410;28;20037;-36
2023/03/30 11:05:13;;;;;;;9.65;2.92;;;15.60;99.90;;;;;;5016364;28;20046;-37
2023/03/30 11:08:24;;;;;;;9.98;2.80;;;15.30;99.90;;;;;;5018869;28;20069;-36
2023/03/30 11:10:57;;;;;;;8.35;2.42;;;15.20;99.90;;;;;;5009897;28;20041;-36
2023/03/30 11:13:34;;;;;;;11.23;3.05;;;15.40;99.90;;;;;;5015058;28;20051;-37
2023/03/30 11:16:04;;;;;;;10.30;2.92;;;15.50;99.90;;;;;;5022727;28;20149;-37
2023/03/30 11:18:42;;;;;;;8.70;2.63;;;16.00;99.90;;;;;;5023552;28;20042;-36
2023/03/30 11:21:14;;;;;;;8.57;2.13;;;16.40;99.90;;;;;;5019420;28;20046;-36
2023/03/30 11:23:45;;;;;;;8.63;2.35;;;16.50;99.90;;;;;;5021981;28;20033;-37
2023/03/30 11:26:19;;;;;;;7.90;2.28;;;16.20;99.90;;;;;;5022210;28;20239;-37
2023/03/30 11:28:52;;;;;;;;;;;16.10;99.90;;;;;;5012779;28;20033;-36
2023/03/30 11:31:49;;;;;;;8.15;3.00;;;16.20;99.90;;;;;;5020735;28;20448;-37
2023/03/30 11:34:20;;;;;;;14.05;3.15;;;16.50;99.90;;;;;;5014398;28;20042;-37
2023/03/30 11:36:49;;;;;;;10.40;2.63;;;16.80;99.90;;;;;;5012977;28;20042;-37
2023/03/30 11:39:22;;;;;;;8.85;2.65;;;16.40;99.90;;;;;;5013648;28;20042;-36
2023/03/30 11:42:09;;;;;;;9.75;3.05;;;16.00;99.90;;;;;;5025751;28;20418;-36
2023/03/30 11:44:35;;;;;;;12.07;2.65;;;15.70;99.90;;;;;;5011995;28;20125;-36
2023/03/30 11:47:26;;;;;;;12.32;2.92;;;15.50;99.90;;;;;;5012890;28;20431;-37
2023/03/30 11:49:56;;;;;;;11.55;3.00;;;15.50;99.90;;;;;;5005504;28;20033;-36
2023/03/30 11:52:51;;;;;;;9.52;2.72;;;15.00;99.90;;;;;;5014029;28;20041;-36
2023/03/30 11:55:23;;;;;;;14.05;2.97;;;15.00;99.90;;;;;;5008584;28;20077;-36
2023/03/30 11:58:04;;;;;;;14.65;3.00;;;14.90;99.90;;;;;;5012446;28;20052;-37
2023/03/30 12:00:46;;;;;;;10.75;2.90;;;15.60;99.90;;;;;;5014957;28;20042;-37
2023/03/30 12:03:36;;;;;;;12.20;3.30;;;16.70;99.90;;;;;;5011467;28;20064;-37
2023/03/30 12:06:26;;;;;;;13.40;2.70;;;17.00;99.90;;;;;;5011655;28;20090;-37
2023/03/30 12:08:58;;;;;;;11.52;2.80;;;16.70;99.90;;;;;;5014655;28;20042;-36
2023/03/30 12:11:46;;;;;;;10.65;3.10;;;16.40;99.90;;;;;;5015674;28;20038;-37
2023/03/30 12:14:29;;;;;;;9.73;2.95;;;16.70;99.90;;;;;;5011261;28;20037;-37
2023/03/30 12:16:58;;;;;;;;;;;17.10;99.90;;;;;;5011442;28;20042;-37
2023/03/30 12:19:48;;;;;;;13.05;3.33;;;17.50;99.90;;;;;;5016196;28;19937;-37
2023/03/30 12:22:20;;;;;;;9.43;2.80;;;17.10;99.90;;;;;;5026103;28;20510;-37
2023/03/30 12:25:18;;;;;;;11.82;3.00;;;16.50;99.90;;;;;;5016602;28;20060;-36
2023/03/30 12:28:22;;;;;;;11.50;3.03;;;16.50;99.90;;;;;;4976570;28;20129;-36
2023/03/30 12:30:58;;;;;;;16.25;3.38;;;16.00;99.90;;;;;;5006964;28;20056;-37
2023/03/30 12:33:45;;;;;;;12.60;2.50;;;15.80;99.90;;;;;;5011997;28;20509;-36
2023/03/30 12:36:24;;;;;;;10.10;2.38;;;15.50;99.90;;;;;;5015788;28;20038;-36
2023/03/30 12:39:00;;;;;;;11.57;2.88;;;15.20;99.90;;;;;;5016134;28;20047;-37
2023/03/30 12:41:38;;;;;;;10.18;2.42;;;15.40;99.90;;;;;;5020114;28;20317;-37
2023/03/30 12:44:19;;;;;;;11.00;3.45;;;15.40;99.90;;;;;;5034357;28;20139;-36
2023/03/30 12:46:50;;;;;;;11.55;3.25;;;15.90;99.90;;;;;;5011298;28;20543;-36
2023/03/30 12:49:31;;;;;;;14.20;2.88;;;15.90;99.90;;;;;;4995225;28;20395;-36
2023/03/30 12:52:14;;;;;;;9.65;3.10;;;15.70;99.90;;;;;;5017363;28;20042;-37
2023/03/30 12:55:02;;;;;;;11.68;2.90;;;15.40;99.90;;;;;;5017957;28;20083;-36
2023/03/30 12:57:55;;;;;;;7.00;2.35;;;15.30;99.90;;;;;;5010696;28;20042;-35
2023/03/30 13:00:49;;;;;;;10.73;3.28;;;15.80;99.90;;;;;;5028677;28;20037;-38
2023/03/30 13:03:48;;;;;;;12.20;2.92;;;16.20;99.90;;;;;;5011897;28;20129;-34
2023/03/30 13:06:38;;;;;;;11.88;3.47;;;16.90;99.90;;;;;;5011807;28;20030;-34
2023/03/30 13:09:19;;;;;;;11.23;3.33;;;17.30;99.90;;;;;;5012307;28;20038;-34